Time;durP1;ratioP1;P1;durP2;ratioP2;P2;SDS_P1;SDS_P2;PMS_P1;PMS_P2;Temp;Humidity;BMP_temperature;BMP_pressure;BME280_temperature;BME280_humidity;BME280_pressure;Samples;Min_cycle;Max_cycle;Signal;HPM_P1;HPM_P2
2021/12/14 00:03:44;;;;;;;263.37;123.07;;;;;;;-0.74;93.51;100111.63;4109331;85;21074;-85
2021/12/14 00:09:46;;;;;;;285.85;132.43;;;;;;;-0.74;93.23;100122.39;4068996;85;21562;-86
2021/12/14 00:15:51;;;;;;;288.25;136.37;;;;;;;-0.71;93.79;100113.77;4084990;86;21155;-86
2021/12/14 00:22:03;;;;;;;287.80;131.60;;;;;;;-0.71;93.79;100113.77;4082435;86;21660;-86
2021/12/14 00:28:08;;;;;;;267.23;125.20;;;;;;;-0.72;93.90;100098.73;4108046;86;22365;-85
2021/12/14 00:34:10;;;;;;;257.02;122.70;;;;;;;-0.69;94.01;100104.90;4167899;84;21032;-86
2021/12/14 00:40:21;;;;;;;262.30;121.17;;;;;;;-0.59;94.45;100116.41;4159184;84;22010;-87
2021/12/14 00:46:25;;;;;;;253.92;121.25;;;;;;;-0.59;94.45;100116.41;4168579;84;21126;-86
2021/12/14 00:52:26;;;;;;;292.35;131.60;;;;;;;-0.73;94.16;100085.00;4163398;84;21067;-85
2021/12/14 00:58:28;;;;;;;296.07;127.75;;;;;;;-0.52;94.35;100119.59;4164218;84;21617;-85
2021/12/14 01:04:35;;;;;;;281.08;130.22;;;;;;;-0.52;94.35;100119.59;4152787;84;21505;-87
2021/12/14 01:10:46;;;;;;;290.52;132.00;;;;;;;-0.46;94.62;100120.40;4164712;84;21130;-85
2021/12/14 01:16:56;;;;;;;277.22;125.45;;;;;;;-0.42;94.73;100118.22;4156680;84;21070;-89
2021/12/14 01:23:01;;;;;;;296.50;133.80;;;;;;;-0.43;94.70;100114.47;4145947;84;21054;-86
2021/12/14 01:29:05;;;;;;;279.35;125.30;;;;;;;-0.42;94.72;100110.69;4159355;84;21139;-85
2021/12/14 01:35:13;;;;;;;289.02;134.45;;;;;;;-0.46;94.63;100104.26;4092461;85;21075;-85
2021/12/14 01:41:15;;;;;;;299.80;135.18;;;;;;;-0.41;94.78;100098.30;4092779;87;21111;-85
2021/12/14 01:47:28;;;;;;;287.40;136.43;;;;;;;-0.36;94.95;100095.59;3991238;88;21693;-85
2021/12/14 01:53:32;;;;;;;275.87;133.47;;;;;;;-0.52;94.54;100073.88;3968186;87;21185;-85
2021/12/14 01:59:38;;;;;;;282.15;135.60;;;;;;;-0.52;94.54;100073.88;3988339;88;21124;-85
2021/12/14 02:05:49;;;;;;;286.75;140.25;;;;;;;-0.36;94.96;100102.88;3989577;87;21074;-83
2021/12/14 02:11:55;;;;;;;283.02;138.10;;;;;;;-0.30;95.18;100102.55;3992249;88;21132;-87
2021/12/14 02:18:00;;;;;;;204.07;101.20;;;;;;;-0.30;95.24;100102.55;3989028;88;21094;-83
2021/12/14 02:24:05;;;;;;;277.90;134.55;;;;;;;-0.41;95.13;100082.16;3990433;88;21135;-84
2021/12/14 02:30:12;;;;;;;286.15;135.68;;;;;;;-0.41;95.13;100082.16;4041376;85;21035;-84
2021/12/14 02:36:25;;;;;;;277.40;135.37;;;;;;;-0.28;95.37;100093.67;4103748;86;21094;-84
2021/12/14 02:42:30;;;;;;;262.90;122.17;;;;;;;-0.30;95.18;100100.42;4170345;84;21024;-84
2021/12/14 02:48:32;;;;;;;262.17;122.28;;;;;;;-0.31;95.41;100098.80;4148031;84;21051;-87
2021/12/14 02:54:42;;;;;;;275.90;126.45;;;;;;;-0.38;95.37;100099.66;4159763;84;21105;-84
2021/12/14 03:00:51;;;;;;;284.85;129.40;;;;;;;-0.31;95.62;100106.86;4159476;84;21094;-85
2021/12/14 03:06:58;;;;;;;294.50;127.87;;;;;;;-0.32;95.62;100107.95;4168657;84;21514;-84
2021/12/14 03:13:02;;;;;;;;;;;;;;;-0.31;95.74;100115.75;4167958;84;21147;-83
2021/12/14 03:19:06;;;;;;;328.05;135.68;;;;;;;-0.34;95.91;100112.27;4160229;84;20139;-83
2021/12/14 03:25:12;;;;;;;337.42;141.03;;;;;;;-0.39;95.99;100100.71;4137407;84;21626;-85
2021/12/14 03:31:31;;;;;;;347.10;138.85;;;;;;;-0.40;96.12;100097.77;4166998;84;21717;-84
2021/12/14 03:37:33;;;;;;;338.30;140.70;;;;;;;-0.36;96.21;100102.88;4086585;86;21027;-84
2021/12/14 03:43:38;;;;;;;323.27;133.65;;;;;;;-0.45;96.24;100084.34;4097728;86;21082;-84
2021/12/14 03:49:55;;;;;;;332.98;137.92;;;;;;;-0.45;96.24;100084.34;4109900;85;21598;-84
2021/12/14 03:56:02;;;;;;;357.57;148.30;;;;;;;-0.37;96.32;100101.25;4107485;85;21059;-84
2021/12/14 04:02:09;;;;;;;368.23;148.57;;;;;;;-0.45;96.17;100095.91;4115791;85;21078;-83
2021/12/14 04:08:14;;;;;;;355.98;149.62;;;;;;;-0.45;96.17;100095.91;4029867;87;21075;-89
2021/12/14 04:14:17;;;;;;;347.90;149.68;;;;;;;-0.56;96.57;100067.98;4012085;87;21113;-83
2021/12/14 04:20:27;;;;;;;351.75;155.03;;;;;;;-0.56;96.57;100067.98;4040549;87;21021;-85
2021/12/14 04:26:30;;;;;;;351.52;161.65;;;;;;;-0.60;95.83;100075.01;4106242;85;21073;-85
2021/12/14 04:32:32;;;;;;;370.10;156.72;;;;;;;-0.60;95.83;100075.01;4087984;86;21133;-86
2021/12/14 04:38:45;;;;;;;365.77;157.57;;;;;;;-0.79;96.07;100084.23;4087086;86;21083;-84
2021/12/14 04:57:44;;;;;;;370.13;152.13;;;;;;;-0.96;95.90;100092.34;4060517;87;21028;-87
2021/12/14 05:04:00;;;;;;;354.85;153.25;;;;;;;-1.05;95.99;100097.45;4049187;87;21115;-85
2021/12/14 05:10:06;;;;;;;387.40;150.50;;;;;;;-1.07;96.02;100095.60;4162025;84;21089;-85
2021/12/14 05:16:11;;;;;;;378.43;147.20;;;;;;;-1.10;96.15;100093.46;4172775;84;21064;-85
2021/12/14 05:22:18;;;;;;;380.30;149.57;;;;;;;-1.09;96.28;100099.62;4148991;84;21875;-84
2021/12/14 05:28:22;;;;;;;421.10;150.97;;;;;;;-1.09;96.16;100102.31;4138411;84;21028;-83
2021/12/14 05:34:28;;;;;;;416.60;148.90;;;;;;;-1.12;96.21;100105.02;4111508;84;21130;-84
2021/12/14 05:46:37;;;;;;;402.47;142.03;;;;;;;-1.18;96.41;100114.69;4103384;86;21062;-86
2021/12/14 05:52:41;;;;;;;438.72;146.87;;;;;;;-1.19;96.37;100113.88;4098403;86;21677;-85
2021/12/14 05:58:51;;;;;;;337.02;118.20;;;;;;;-1.19;96.61;100101.00;4098094;85;21061;-85
2021/12/14 06:04:54;;;;;;;424.02;146.37;;;;;;;-1.13;97.02;100088.63;4096097;86;21095;-86
2021/12/14 06:10:58;;;;;;;428.88;151.70;;;;;;;-1.09;96.83;100087.00;4102205;86;21007;-84
2021/12/14 06:17:04;;;;;;;449.90;153.90;;;;;;;-1.04;97.02;100090.21;3965036;89;21059;-84
2021/12/14 06:23:05;;;;;;;435.93;152.32;;;;;;;-1.06;96.94;100091.83;4103743;86;21045;-84
2021/12/14 06:29:27;;;;;;;434.03;148.43;;;;;;;-1.02;97.10;100092.91;4099161;86;21115;-84
2021/12/14 06:35:42;;;;;;;417.80;145.20;;;;;;;-1.01;97.20;100086.97;4103172;85;21088;-84
2021/12/14 06:41:44;;;;;;;398.73;142.82;;;;;;;-1.00;97.28;100084.02;4102464;86;21046;-84
2021/12/14 06:47:50;;;;;;;393.17;141.20;;;;;;;-0.92;97.54;100081.30;4082743;86;21543;-84
2021/12/14 06:53:55;;;;;;;;;;;;;;;-0.88;97.69;100083.72;4107384;85;21099;-83
2021/12/14 06:59:59;;;;;;;362.40;131.78;;;;;;;-0.83;97.76;100090.43;3996850;86;54026;-83
2021/12/14 07:06:06;;;;;;;393.93;144.70;;;;;;;-0.78;98.03;100082.33;4065044;87;21051;-85
2021/12/14 07:12:14;;;;;;;372.98;134.67;;;;;;;-0.67;98.18;100090.62;4039686;87;22531;-85
2021/12/14 07:18:15;;;;;;;361.23;134.70;;;;;;;-0.58;98.13;100091.68;4065536;86;21014;-84
2021/12/14 07:24:30;;;;;;;316.65;118.37;;;;;;;-0.53;98.17;100085.73;4063883;86;21092;-85
2021/12/14 07:30:43;;;;;;;429.18;143.65;;;;;;;-0.48;98.32;100088.92;4064466;85;21160;-83
2021/12/14 07:36:44;;;;;;;463.12;156.60;;;;;;;-0.44;98.02;100092.13;4110213;85;21101;-84
2021/12/14 07:42:46;;;;;;;428.73;147.05;;;;;;;-0.44;97.76;100090.00;4057562;85;43274;-83
2021/12/14 07:48:55;;;;;;;404.40;144.32;;;;;;;-0.44;97.76;100090.00;4070366;86;21206;-88
2021/12/14 07:55:03;;;;;;;408.48;137.15;;;;;;;-0.39;98.21;100092.11;4054087;86;21059;-84
2021/12/14 08:01:08;;;;;;;388.93;127.35;;;;;;;-0.29;98.45;100101.48;4076456;86;21116;-84
2021/12/14 08:07:14;;;;;;;358.40;122.17;;;;;;;-0.29;98.45;100101.48;4084414;85;75942;-88
2021/12/14 08:13:21;;;;;;;311.98;110.70;;;;;;;-0.28;98.60;100090.16;4125950;85;21064;-85
2021/12/14 08:19:40;;;;;;;340.15;115.37;;;;;;;-0.09;98.59;100100.55;4158934;85;21077;-86
2021/12/14 08:25:42;;;;;;;401.18;132.37;;;;;;;0.02;98.55;100102.10;4154595;85;21583;-85
2021/12/14 08:32:06;;;;;;;389.98;129.23;;;;;;;0.07;98.42;100095.34;4161796;83;21073;-86
2021/12/14 08:38:08;;;;;;;402.00;131.52;;;;;;;0.10;98.33;100088.05;4206261;82;21036;-86
2021/12/14 08:44:11;;;;;;;427.80;138.07;;;;;;;0.12;98.32;100081.85;4218470;83;21031;-86
2021/12/14 08:50:14;;;;;;;367.23;118.33;;;;;;;0.17;98.38;100086.39;4217881;82;21588;-86
2021/12/14 08:56:18;;;;;;;385.90;121.05;;;;;;;0.20;98.24;100085.30;4214354;83;21688;-88
2021/12/14 09:02:21;;;;;;;344.02;110.68;;;;;;;0.23;98.17;100082.58;4230715;83;21041;-85
2021/12/14 09:08:22;;;;;;;330.50;111.90;;;;;;;0.22;98.15;100080.41;4211878;83;21077;-86
2021/12/14 09:14:25;;;;;;;323.52;110.25;;;;;;;0.25;98.12;100083.89;4207787;83;21027;-86
2021/12/14 09:20:35;;;;;;;356.45;115.90;;;;;;;0.29;98.17;100086.30;4216845;83;21065;-86
2021/12/14 09:26:41;;;;;;;320.85;111.42;;;;;;;0.41;98.40;100089.98;4227930;83;21896;-87
2021/12/14 09:32:42;;;;;;;321.52;109.63;;;;;;;0.50;98.17;100091.77;4213147;83;21598;-87
2021/12/14 09:38:52;;;;;;;328.25;110.65;;;;;;;0.62;98.37;100076.05;4206394;83;21376;-87
2021/12/14 09:44:59;;;;;;;325.02;109.95;;;;;;;0.71;98.12;100064.91;4229462;83;21071;-88
2021/12/14 09:51:07;;;;;;;322.12;108.25;;;;;;;0.77;98.05;100053.52;4244300;83;21046;-86
2021/12/14 09:57:30;;;;;;;327.02;111.45;;;;;;;0.82;98.11;100055.63;4201255;83;21052;-86
2021/12/14 10:03:32;;;;;;;333.43;112.05;;;;;;;0.95;98.08;100061.70;4227207;83;21076;-86
2021/12/14 10:09:42;;;;;;;302.82;107.10;;;;;;;1.03;98.03;100042.74;4217669;83;20990;-85
2021/12/14 10:15:50;;;;;;;313.82;107.67;;;;;;;1.14;98.15;100031.53;4224429;83;21075;-86
2021/12/14 10:21:56;;;;;;;321.40;113.55;;;;;;;1.17;97.82;100040.42;4216071;83;21083;-91
2021/12/14 10:27:58;;;;;;;;;;;;;;;1.28;97.92;100038.39;4149397;84;21124;-86
2021/12/14 10:34:05;;;;;;;296.65;108.17;;;;;;;1.30;97.56;100041.62;4226193;83;20273;-90
2021/12/14 10:46:38;;;;;;;307.87;107.87;;;;;;;1.41;97.44;100034.97;4221155;83;21019;-87
2021/12/14 10:52:42;;;;;;;300.27;104.47;;;;;;;1.47;97.64;100043.28;4226288;83;21095;-87
2021/12/14 10:58:47;;;;;;;242.55;89.62;;;;;;;1.64;97.60;100028.73;4220995;83;20992;-86
2021/12/14 11:04:56;;;;;;;276.98;96.40;;;;;;;1.57;97.71;100022.35;4209528;83;21048;-85
2021/12/14 11:16:05;;;;;;;258.65;95.70;;;;;;;1.83;97.43;100019.28;4600057;76;25793;-86
2021/12/14 11:22:20;;;;;;;225.78;83.78;;;;;;;1.88;97.37;100010.55;4495054;77;21036;-84
2021/12/14 11:28:40;;;;;;;149.40;53.75;;;;;;;2.06;97.42;100010.28;4491465;77;21018;-85
2021/12/14 11:34:45;;;;;;;132.65;52.13;;;;;;;2.15;97.06;100000.40;4384930;77;38739;-85
2021/12/14 11:40:48;;;;;;;146.02;56.68;;;;;;;2.21;96.94;99998.67;4217484;82;21153;-85
2021/12/14 11:53:35;;;;;;;168.50;65.72;;;;;;;2.32;96.73;99981.19;4171669;82;21095;-85
2021/12/14 11:59:44;;;;;;;162.40;63.73;;;;;;;2.30;96.63;99992.06;4202676;83;21920;-85
2021/12/14 12:12:57;;;;;;;;;;;;;;;2.39;96.39;99983.52;4061524;85;21092;-85
2021/12/14 12:27:11;;;;;;;61.05;26.50;;;;;;;2.37;96.10;99989.22;3797345;89;21179;-85
2021/12/14 12:47:41;;;;;;;69.03;32.30;;;;;;;2.66;95.78;99980.29;3667049;92;21274;-85
2021/12/14 12:54:08;;;;;;;71.30;33.05;;;;;;;2.69;95.67;99978.91;3938320;88;38157;-86
2021/12/14 13:28:14;;;;;;;60.35;26.50;;;;;;;2.42;95.52;99985.08;4157567;84;21099;-85
2021/12/14 14:10:09;;;;;;;33.58;16.05;;;;;;;2.56;95.54;100008.88;4145776;85;20999;-85
2021/12/14 14:16:52;;;;;;;38.92;18.62;;;;;;;2.44;95.37;99996.94;3976418;88;21629;-85
2021/12/14 14:37:28;;;;;;;67.55;31.62;;;;;;;2.30;95.42;99988.78;4002703;88;21066;-86
2021/12/14 14:44:02;;;;;;;82.40;39.92;;;;;;;2.20;95.49;99983.58;3977485;87;21071;-85
2021/12/14 14:57:43;;;;;;;129.87;62.05;;;;;;;2.08;95.50;99994.05;4118029;85;21053;-85
2021/12/14 15:04:11;;;;;;;134.70;62.33;;;;;;;1.93;95.45;99995.63;4003634;86;21394;-86
2021/12/14 15:17:51;;;;;;;129.63;57.70;;;;;;;1.78;95.32;99988.31;3903580;90;21154;-85
2021/12/14 15:24:21;;;;;;;109.57;47.25;;;;;;;1.66;95.38;99990.09;4045993;87;22196;-85
2021/12/14 15:44:21;;;;;;;139.85;66.20;;;;;;;1.70;95.70;99983.57;4158647;83;21052;-86
2021/12/14 15:50:37;;;;;;;150.55;74.07;;;;;;;1.89;95.70;99979.77;4209347;83;21064;-86
2021/12/14 16:04:26;;;;;;;96.40;45.67;;;;;;;1.90;95.21;99967.86;4177430;83;21109;-85
2021/12/14 16:17:44;;;;;;;102.65;48.95;;;;;;;1.84;95.09;99970.94;4181111;83;21771;-86
2021/12/14 16:24:26;;;;;;;108.50;49.30;;;;;;;1.70;95.14;99984.38;4205098;83;21052;-85
2021/12/14 16:38:13;;;;;;;115.22;57.90;;;;;;;1.55;95.66;99981.92;4110962;84;21633;-85
2021/12/14 16:51:33;;;;;;;134.20;62.05;;;;;;;1.83;96.05;100009.84;4063019;84;21186;-86
2021/12/14 16:57:34;;;;;;;131.43;63.70;;;;;;;1.80;96.09;100025.27;4043389;85;21049;-86
2021/12/14 17:03:44;;;;;;;131.63;63.95;;;;;;;1.78;96.00;100022.05;4200212;83;21056;-86
2021/12/14 17:09:54;;;;;;;136.18;66.77;;;;;;;1.81;96.27;100018.23;4169120;84;21081;-86
2021/12/14 17:16:21;;;;;;;130.78;63.38;;;;;;;1.70;96.05;100015.42;4227577;83;21074;-86
2021/12/14 17:22:37;;;;;;;134.82;65.75;;;;;;;1.71;96.36;100017.59;4180768;83;21039;-86
2021/12/14 17:29:05;;;;;;;158.95;73.40;;;;;;;1.68;96.45;100018.95;4186116;83;21042;-86
2021/12/14 17:35:13;;;;;;;152.60;77.78;;;;;;;1.67;96.56;100026.80;4191558;83;21072;-86
2021/12/14 17:41:28;;;;;;;162.10;79.73;;;;;;;1.82;96.74;100027.14;4201630;83;21013;-86
2021/12/14 17:47:41;;;;;;;167.20;83.92;;;;;;;1.78;96.98;100018.00;4193154;83;21071;-86
2021/12/14 17:53:43;;;;;;;161.18;78.60;;;;;;;1.83;96.88;99998.50;4236587;82;21054;-86
2021/12/14 18:00:07;;;;;;;162.53;79.27;;;;;;;1.72;96.91;99988.14;4236479;83;21004;-86
2021/12/14 18:06:32;;;;;;;186.25;89.55;;;;;;;1.86;97.00;99990.34;4244107;83;21052;-86
2021/12/14 18:19:26;;;;;;;174.55;85.17;;;;;;;1.76;97.12;100005.34;4223990;83;20963;-85
2021/12/14 18:25:34;;;;;;;209.87;102.45;;;;;;;1.67;96.95;100009.80;4245983;82;21084;-85
2021/12/14 18:31:36;;;;;;;196.60;93.67;;;;;;;1.66;97.18;100022.48;4234578;83;21046;-85
2021/12/14 18:38:09;;;;;;;165.50;84.80;;;;;;;1.61;97.46;100022.02;4230676;83;21015;-85
2021/12/14 18:44:25;;;;;;;184.65;83.67;;;;;;;1.67;97.43;100025.45;4224743;83;20963;-85
2021/12/14 18:50:43;;;;;;;167.10;82.82;;;;;;;1.72;97.21;100038.89;4254117;82;21539;-85
2021/12/14 19:03:52;;;;;;;;;;;;;;;1.63;97.75;100036.02;4206500;83;21491;-86
2021/12/14 19:09:53;;;;;;;167.37;83.27;;;;;;;1.65;97.88;100033.03;4202282;83;20230;-86
2021/12/14 19:29:42;;;;;;;181.65;88.55;;;;;;;1.76;97.70;100032.34;4117368;84;21042;-86
2021/12/14 19:35:47;;;;;;;196.95;94.20;;;;;;;1.79;98.22;100040.66;4176809;81;21657;-86
2021/12/14 19:42:05;;;;;;;203.92;103.20;;;;;;;1.79;98.07;100050.64;4230523;83;21598;-86
2021/12/14 19:48:21;;;;;;;208.70;99.40;;;;;;;1.92;98.45;100043.17;4246092;83;21046;-86
2021/12/14 19:55:04;;;;;;;211.52;99.25;;;;;;;2.08;98.24;100041.86;4261806;83;21513;-85
2021/12/14 20:01:20;;;;;;;193.55;95.87;;;;;;;2.03;97.77;100041.39;4228112;83;21560;-85
2021/12/14 20:07:43;;;;;;;185.07;86.55;;;;;;;2.03;97.96;100035.98;4212490;83;21062;-86
2021/12/14 20:14:25;;;;;;;175.40;84.87;;;;;;;2.02;98.10;100035.72;4224457;83;21031;-86
2021/12/14 20:28:16;;;;;;;172.68;84.03;;;;;;;1.95;97.96;100056.91;4167106;83;21031;-85
2021/12/14 20:34:36;;;;;;;163.60;81.70;;;;;;;1.79;98.07;100061.45;4229798;83;21025;-86
2021/12/14 20:40:50;;;;;;;168.55;80.17;;;;;;;1.85;98.07;100062.44;4227724;83;21742;-86
2021/12/14 20:54:48;;;;;;;193.70;90.07;;;;;;;1.90;98.46;100066.95;3990941;84;21103;-86
2021/12/14 21:07:41;;;;;;;183.65;90.17;;;;;;;1.89;98.38;100074.28;4100672;84;21065;-86
2021/12/14 21:21:35;;;;;;;187.65;93.12;;;;;;;1.90;98.14;100073.17;4086495;85;21128;-86
2021/12/14 21:34:40;;;;;;;220.67;103.47;;;;;;;1.93;98.13;100096.89;4114682;85;21106;-86
2021/12/14 21:48:15;;;;;;;216.05;99.40;;;;;;;1.89;98.58;100109.91;4075382;85;21147;-86
2021/12/14 21:54:39;;;;;;;219.30;99.90;;;;;;;1.91;98.51;100115.27;4171272;83;21886;-86
2021/12/14 22:01:00;;;;;;;209.47;101.38;;;;;;;2.03;98.73;100106.75;4171679;83;21008;-86
2021/12/14 22:20:51;;;;;;;200.50;98.17;;;;;;;1.88;98.58;100110.45;4216959;83;21038;-86
2021/12/14 22:48:25;;;;;;;204.95;99.42;;;;;;;1.88;99.33;100102.92;4022714;87;21119;-86
2021/12/14 23:22:08;;;;;;;236.40;104.60;;;;;;;2.07;99.70;100096.41;3916306;89;21051;-86
2021/12/14 23:42:03;;;;;;;222.65;106.50;;;;;;;2.08;99.96;100096.69;4163583;84;21095;-86
2021/12/14 23:55:23;;;;;;;222.98;105.58;;;;;;;2.15;100.00;100101.70;4032403;86;21112;-86
